createdAt,value
2022-11-23T00:01:35.862Z,82.76
2022-11-23T00:04:05.843Z,82.62
2022-11-23T00:06:35.865Z,82.30
2022-11-23T00:09:03.595Z,82.30
2022-11-23T00:11:31.781Z,82.26
2022-11-23T00:13:59.501Z,82.19
2022-11-23T00:16:29.132Z,82.14
2022-11-23T00:18:58.241Z,82.16
2022-11-23T00:21:27.854Z,81.75
2022-11-23T00:23:56.908Z,81.68
2022-11-23T00:26:24.669Z,82.27
2022-11-23T00:28:52.323Z,82.42
2022-11-23T00:31:21.835Z,82.22
2022-11-23T00:33:50.460Z,82.30
2022-11-23T00:36:18.464Z,82.38
2022-11-23T00:38:46.605Z,82.84
2022-11-23T00:41:16.993Z,82.71
2022-11-23T00:43:44.814Z,82.48
2022-11-23T00:46:15.875Z,82.65
2022-11-23T00:48:43.998Z,83.04
2022-11-23T00:51:14.316Z,83.12
2022-11-23T00:53:42.698Z,82.90
2022-11-23T00:56:10.596Z,82.93
2022-11-23T00:58:39.864Z,82.87
2022-11-23T01:01:09.713Z,83.17
2022-11-23T01:03:38.318Z,83.46
2022-11-23T01:06:07.482Z,83.34
2022-11-23T01:08:35.795Z,83.25
2022-11-23T01:11:04.699Z,83.18
2022-11-23T01:13:33.058Z,83.18
2022-11-23T01:16:02.107Z,82.93
2022-11-23T01:18:30.047Z,82.99
2022-11-23T01:20:57.983Z,82.58
2022-11-23T01:23:25.727Z,82.99
2022-11-23T01:25:56.964Z,83.30
2022-11-23T01:28:25.318Z,83.94
2022-11-23T01:30:53.035Z,84.22
2022-11-23T01:33:22.320Z,84.51
2022-11-23T01:35:50.011Z,84.78
2022-11-23T01:38:18.560Z,85.03
2022-11-23T01:40:46.341Z,84.45
2022-11-23T01:43:16.923Z,84.85
2022-11-23T01:45:46.379Z,85.59
2022-11-23T01:48:16.970Z,86.26
2022-11-23T01:50:48.027Z,86.12
2022-11-23T01:53:16.246Z,86.14
2022-11-23T01:55:45.198Z,85.71
2022-11-23T01:58:14.333Z,85.76
2022-11-23T02:00:42.351Z,86.00
2022-11-23T02:03:10.884Z,85.99
2022-11-23T02:05:41.461Z,86.14
2022-11-23T02:08:11.352Z,86.23
2022-11-23T02:10:39.152Z,85.95
2022-11-23T02:13:08.321Z,85.76
2022-11-23T02:15:36.805Z,85.67
2022-11-23T02:18:06.768Z,85.68
2022-11-23T02:20:34.635Z,86.20
2022-11-23T02:23:14.302Z,86.21
2022-11-23T02:25:51.307Z,86.17
2022-11-23T02:28:21.052Z,86.56
2022-11-23T02:30:51.153Z,86.22
2022-11-23T02:33:18.795Z,86.22
2022-11-23T02:35:51.081Z,86.20
2022-11-23T02:38:19.778Z,86.03
2022-11-23T02:40:47.650Z,85.94
2022-11-23T02:43:17.189Z,85.80
2022-11-23T02:45:48.019Z,85.38
2022-11-23T02:48:15.681Z,85.39
2022-11-23T02:50:43.756Z,85.24
2022-11-23T02:53:11.628Z,85.25
2022-11-23T02:55:39.402Z,85.62
2022-11-23T02:58:08.047Z,86.04
2022-11-23T03:00:37.218Z,86.22
2022-11-23T03:03:05.581Z,85.99
2022-11-23T03:05:33.593Z,86.18
2022-11-23T03:08:01.251Z,85.99
2022-11-23T03:10:28.910Z,85.32
2022-11-23T03:12:57.565Z,85.29
2022-11-23T03:15:25.799Z,85.18
2022-11-23T03:17:55.032Z,85.10
2022-11-23T03:20:23.024Z,84.84
2022-11-23T03:22:50.841Z,84.66
2022-11-23T03:25:22.756Z,84.38
2022-11-23T03:27:50.540Z,84.46
2022-11-23T03:30:18.263Z,84.44
2022-11-23T03:32:45.920Z,84.18
2022-11-23T03:35:15.010Z,84.06
2022-11-23T03:37:43.180Z,84.19
2022-11-23T03:40:11.962Z,84.76
2022-11-23T03:42:41.079Z,85.18
2022-11-23T03:45:10.884Z,85.09
2022-11-23T03:47:38.725Z,85.20
2022-11-23T03:50:07.604Z,85.32
2022-11-23T03:52:37.213Z,85.14
2022-11-23T03:55:05.613Z,84.70
2022-11-23T03:57:33.422Z,84.34
2022-11-23T04:00:01.140Z,84.06
2022-11-23T04:02:28.761Z,83.99
2022-11-23T04:07:44.607Z,84.15
2022-11-23T04:10:12.486Z,84.01
2022-11-23T04:12:40.086Z,84.66
2022-11-23T04:15:08.732Z,84.37
2022-11-23T04:17:36.907Z,84.24
2022-11-23T04:20:05.557Z,84.20
2022-11-23T04:22:33.273Z,84.17
2022-11-23T04:25:02.316Z,84.10
2022-11-23T04:27:30.182Z,84.70
2022-11-23T04:29:57.848Z,84.39
2022-11-23T04:32:27.042Z,84.39
2022-11-23T04:34:54.774Z,84.43
2022-11-23T04:37:23.501Z,84.61
2022-11-23T04:39:52.229Z,84.59
2022-11-23T04:42:21.215Z,84.54
2022-11-23T04:44:48.792Z,84.68
2022-11-23T04:47:16.469Z,85.39
2022-11-23T04:49:44.327Z,85.36
2022-11-23T04:52:12.346Z,85.12
2022-11-23T04:54:40.089Z,85.28
2022-11-23T04:57:07.780Z,85.30
2022-11-23T04:59:36.788Z,85.03
2022-11-23T05:02:04.446Z,85.26
2022-11-23T05:04:32.329Z,85.16
2022-11-23T05:06:59.990Z,85.16
2022-11-23T05:09:27.614Z,85.71
2022-11-23T05:11:55.260Z,85.65
2022-11-23T05:14:22.892Z,86.22
2022-11-23T05:16:51.889Z,86.04
2022-11-23T05:19:19.556Z,85.74
2022-11-23T05:21:47.219Z,85.93
2022-11-23T05:24:14.904Z,85.77
2022-11-23T05:26:42.539Z,85.34
2022-11-23T05:29:10.187Z,85.44
2022-11-23T05:31:37.848Z,85.16
2022-11-23T05:34:06.840Z,84.94
2022-11-23T05:36:38.426Z,84.86
2022-11-23T05:39:08.860Z,85.16
2022-11-23T05:41:36.585Z,85.34
2022-11-23T05:44:04.245Z,85.42
2022-11-23T05:46:31.945Z,84.94
2022-11-23T05:48:59.548Z,85.25
2022-11-23T05:51:28.580Z,84.96
2022-11-23T05:53:57.165Z,85.25
2022-11-23T05:56:25.004Z,85.38
2022-11-23T05:58:52.755Z,85.34
2022-11-23T06:01:20.361Z,85.14
2022-11-23T06:03:48.056Z,85.42
2022-11-23T06:06:16.127Z,85.09
2022-11-23T06:08:49.026Z,84.50
2022-11-23T06:11:17.024Z,84.77
2022-11-23T06:13:47.606Z,84.74
2022-11-23T06:16:15.237Z,84.87
2022-11-23T06:18:43.022Z,85.28
2022-11-23T06:21:10.795Z,85.74
2022-11-23T06:23:38.485Z,85.82
2022-11-23T06:26:07.653Z,85.46
2022-11-23T06:28:36.933Z,85.54
2022-11-23T06:31:06.935Z,85.42
2022-11-23T06:33:35.203Z,85.74
2022-11-23T06:36:04.355Z,85.87
2022-11-23T06:38:31.961Z,85.64
2022-11-23T06:41:01.740Z,85.41
2022-11-23T06:43:31.559Z,85.41
2022-11-23T06:45:59.319Z,85.55
2022-11-23T06:48:27.164Z,85.32
2022-11-23T06:50:54.801Z,85.53
2022-11-23T06:53:22.845Z,85.48
2022-11-23T06:55:51.162Z,85.63
2022-11-23T06:58:18.961Z,85.72
2022-11-23T07:00:47.993Z,85.88
2022-11-23T07:03:21.808Z,86.14
2022-11-23T07:05:49.468Z,86.24
2022-11-23T07:08:17.129Z,86.40
2022-11-23T07:10:44.780Z,86.33
2022-11-23T07:13:13.067Z,86.27
2022-11-23T07:15:40.891Z,85.97
2022-11-23T07:18:11.258Z,86.36
2022-11-23T07:20:39.023Z,85.98
2022-11-23T07:23:08.659Z,86.15
2022-11-23T07:25:37.577Z,85.93
2022-11-23T07:28:07.414Z,86.19
2022-11-23T07:30:36.186Z,85.95
2022-11-23T07:33:10.847Z,85.87
2022-11-23T07:35:41.601Z,86.32
2022-11-23T07:38:09.915Z,85.88
2022-11-23T07:40:38.507Z,86.10
2022-11-23T07:43:07.685Z,85.51
2022-11-23T07:45:36.807Z,85.22
2022-11-23T07:48:06.410Z,85.34
2022-11-23T07:50:34.630Z,85.32
2022-11-23T07:53:05.183Z,85.72
2022-11-23T07:55:34.069Z,85.45
2022-11-23T07:58:02.722Z,85.00
2022-11-23T08:00:31.435Z,84.88
2022-11-23T08:05:48.510Z,84.85
2022-11-23T08:08:17.584Z,84.57
2022-11-23T08:10:49.940Z,84.64
2022-11-23T08:13:20.539Z,84.54
2022-11-23T08:15:53.895Z,84.48
2022-11-23T08:18:23.395Z,84.69
2022-11-23T08:20:54.469Z,84.48
2022-11-23T08:23:25.835Z,84.66
2022-11-23T08:25:53.589Z,85.03
2022-11-23T08:28:21.438Z,84.71
2022-11-23T08:30:49.709Z,84.63
2022-11-23T08:33:18.055Z,84.09
2022-11-23T08:35:46.117Z,84.06
2022-11-23T08:38:14.161Z,83.48
2022-11-23T08:40:43.197Z,83.55
2022-11-23T08:43:11.089Z,83.48
2022-11-23T08:45:39.125Z,83.43
2022-11-23T08:48:07.522Z,83.64
2022-11-23T08:50:35.549Z,83.56
2022-11-23T08:53:03.637Z,83.69
2022-11-23T08:55:31.301Z,83.52
2022-11-23T08:58:00.829Z,83.73
2022-11-23T09:00:29.710Z,83.37
2022-11-23T09:02:59.108Z,83.06
2022-11-23T09:05:27.582Z,83.04
2022-11-23T09:07:55.564Z,82.77
2022-11-23T09:10:23.535Z,82.56
2022-11-23T09:12:51.298Z,82.62
2022-11-23T09:15:21.797Z,82.95
2022-11-23T09:17:49.649Z,82.55
2022-11-23T09:20:17.512Z,82.76
2022-11-23T09:22:45.400Z,82.74
2022-11-23T09:25:13.409Z,82.79
2022-11-23T09:27:41.076Z,82.65
2022-11-23T09:30:15.548Z,82.26
2022-11-23T09:32:44.568Z,81.97
2022-11-23T09:35:12.845Z,81.86
2022-11-23T09:37:41.037Z,81.87
2022-11-23T09:40:11.341Z,81.78
2022-11-23T09:42:58.056Z,81.73
2022-11-23T09:45:31.086Z,81.57
2022-11-23T09:48:31.124Z,81.44
2022-11-23T09:51:02.667Z,81.35
2022-11-23T09:53:34.986Z,81.14
2022-11-23T09:56:03.102Z,81.10
2022-11-23T09:58:34.379Z,81.36
2022-11-23T10:01:05.059Z,81.01
2022-11-23T10:03:36.140Z,81.33
2022-11-23T10:06:07.862Z,81.61
2022-11-23T10:08:45.661Z,81.28
2022-11-23T10:11:27.165Z,81.09
2022-11-23T10:14:04.326Z,80.53
2022-11-23T10:16:39.748Z,80.97
2022-11-23T10:19:14.565Z,81.31
2022-11-23T10:21:48.705Z,81.23
2022-11-23T10:24:22.738Z,80.70
2022-11-23T10:26:51.844Z,80.69
2022-11-23T10:29:26.392Z,80.46
2022-11-23T10:31:57.310Z,81.12
2022-11-23T10:34:39.547Z,80.97
2022-11-23T10:37:11.134Z,81.43
2022-11-23T10:39:39.146Z,81.54
2022-11-23T10:42:18.582Z,81.33
2022-11-23T10:44:47.169Z,81.13
2022-11-23T10:47:35.494Z,80.86
2022-11-23T10:50:05.723Z,80.41
2022-11-23T10:52:34.002Z,80.73
2022-11-23T10:55:08.266Z,80.46
2022-11-23T10:57:42.969Z,80.46
2022-11-23T11:00:18.214Z,80.36
2022-11-23T11:02:48.072Z,80.30
2022-11-23T11:05:46.438Z,80.35
2022-11-23T11:08:16.248Z,80.73
2022-11-23T11:10:45.285Z,80.74
2022-11-23T11:13:28.026Z,80.69
2022-11-23T11:15:57.400Z,80.59
2022-11-23T11:18:28.877Z,80.06
2022-11-23T11:21:04.637Z,80.02
2022-11-23T11:23:32.815Z,79.84
2022-11-23T11:26:20.323Z,79.72
2022-11-23T11:28:50.380Z,79.74
2022-11-23T11:31:35.756Z,79.76
2022-11-23T11:34:26.126Z,80.13
2022-11-23T11:37:11.926Z,80.49
2022-11-23T11:39:46.022Z,80.48
2022-11-23T11:42:18.525Z,80.45
2022-11-23T11:44:47.355Z,80.20
2022-11-23T11:47:24.742Z,79.96
2022-11-23T11:49:55.777Z,79.90
2022-11-23T11:52:27.367Z,79.85
2022-11-23T11:55:02.559Z,79.90
2022-11-23T11:57:35.248Z,80.21
2022-11-23T12:00:06.196Z,80.18
2022-11-23T12:02:37.868Z,80.39
2022-11-23T12:05:12.259Z,80.57
2022-11-23T12:07:45.738Z,80.36
2022-11-23T12:10:16.498Z,80.26
2022-11-23T12:12:44.734Z,80.29
2022-11-23T12:15:47.663Z,80.11
2022-11-23T12:18:20.838Z,80.01
2022-11-23T12:20:53.257Z,80.21
2022-11-23T12:23:25.205Z,80.00
2022-11-23T12:25:59.912Z,80.03
2022-11-23T12:28:42.738Z,80.13
2022-11-23T12:31:16.132Z,80.10
2022-11-23T12:34:03.314Z,79.81
2022-11-23T12:36:45.279Z,79.98
2022-11-23T12:39:23.792Z,79.86
2022-11-23T12:41:55.478Z,79.79
2022-11-23T12:45:00.026Z,79.68
2022-11-23T12:47:36.842Z,79.74
2022-11-23T12:50:15.775Z,79.88
2022-11-23T12:52:58.436Z,80.32
2022-11-23T12:55:33.484Z,80.25
2022-11-23T12:58:08.512Z,79.98
2022-11-23T13:00:39.506Z,79.29
2022-11-23T13:03:42.887Z,79.32
2022-11-23T13:07:05.575Z,79.35
2022-11-23T13:09:54.227Z,79.19
2022-11-23T13:12:46.640Z,78.77
2022-11-23T13:15:35.272Z,78.62
2022-11-23T13:18:27.738Z,78.43
2022-11-23T13:21:18.238Z,78.57
2022-11-23T13:23:46.342Z,78.58
2022-11-23T13:26:18.563Z,78.70
2022-11-23T13:29:03.494Z,78.75
2022-11-23T13:31:36.368Z,78.61
2022-11-23T13:34:39.625Z,78.61
2022-11-23T13:37:12.667Z,78.31
2022-11-23T13:40:16.545Z,78.44
2022-11-23T13:42:45.121Z,78.44
2022-11-23T13:45:26.016Z,78.19
2022-11-23T13:48:34.185Z,78.17
2022-11-23T13:51:03.881Z,78.26
2022-11-23T13:53:34.082Z,78.88
2022-11-23T13:56:24.231Z,78.60
2022-11-23T13:58:53.843Z,78.50
2022-11-23T14:02:00.842Z,78.98
2022-11-23T14:04:31.071Z,78.38
2022-11-23T14:07:01.850Z,78.78
2022-11-23T14:09:35.210Z,78.71
2022-11-23T14:12:14.124Z,78.67
2022-11-23T14:14:48.382Z,78.86
2022-11-23T14:18:10.122Z,78.63
2022-11-23T14:20:47.411Z,78.58
2022-11-23T14:23:46.215Z,79.00
2022-11-23T14:26:23.205Z,78.87
2022-11-23T14:29:04.263Z,78.68
2022-11-23T14:31:39.430Z,78.45
2022-11-23T14:34:15.085Z,78.49
2022-11-23T14:36:48.757Z,78.38
2022-11-23T14:39:49.759Z,78.38
2022-11-23T14:42:21.002Z,78.44
2022-11-23T14:44:51.495Z,78.71
2022-11-23T14:47:29.193Z,78.97
2022-11-23T14:49:57.189Z,79.16
2022-11-23T14:52:28.967Z,78.98
2022-11-23T14:54:58.340Z,79.04
2022-11-23T14:57:30.028Z,79.08
2022-11-23T14:59:59.777Z,79.05
2022-11-23T15:02:34.831Z,78.98
2022-11-23T15:05:07.423Z,79.49
2022-11-23T15:07:49.844Z,79.31
2022-11-23T15:10:33.508Z,79.42
2022-11-23T15:13:01.163Z,79.74
2022-11-23T15:15:31.194Z,79.25
2022-11-23T15:18:01.176Z,79.42
2022-11-23T15:20:32.608Z,79.51
2022-11-23T15:23:03.027Z,79.81
2022-11-23T15:25:31.070Z,80.00
2022-11-23T15:28:00.117Z,79.95
2022-11-23T15:30:31.800Z,79.97
2022-11-23T15:33:01.733Z,79.92
2022-11-23T15:35:37.530Z,79.75
2022-11-23T15:38:11.646Z,79.71
2022-11-23T15:40:46.263Z,79.72
2022-11-23T15:43:15.281Z,80.00
2022-11-23T15:46:03.315Z,79.95
2022-11-23T15:48:32.750Z,79.82
2022-11-23T15:51:01.775Z,79.86
2022-11-23T15:53:32.973Z,80.15
2022-11-23T15:56:02.273Z,79.83
2022-11-23T15:58:31.264Z,80.00
2022-11-23T16:01:07.395Z,80.21
2022-11-23T16:03:37.156Z,80.19
2022-11-23T16:06:26.236Z,80.14
2022-11-23T16:08:55.286Z,80.06
2022-11-23T16:11:30.205Z,79.56
2022-11-23T16:14:15.600Z,79.93
2022-11-23T16:16:46.300Z,79.89
2022-11-23T16:19:26.659Z,80.13
2022-11-23T16:22:02.222Z,80.18
2022-11-23T16:24:34.400Z,80.66
2022-11-23T16:27:03.323Z,79.95
2022-11-23T16:29:34.933Z,80.12
2022-11-23T16:32:06.860Z,80.53
2022-11-23T16:34:34.908Z,80.27
2022-11-23T16:37:05.310Z,80.23
2022-11-23T16:39:35.175Z,80.20
2022-11-23T16:42:05.795Z,80.65
2022-11-23T16:44:38.736Z,80.57
2022-11-23T16:47:21.452Z,80.51
2022-11-23T16:49:49.430Z,80.44
2022-11-23T16:52:18.460Z,80.04
2022-11-23T16:54:48.429Z,79.94
2022-11-23T16:57:27.708Z,80.23
2022-11-23T16:59:55.419Z,80.67
2022-11-23T17:02:23.318Z,80.53
2022-11-23T17:04:51.410Z,80.43
2022-11-23T17:07:19.204Z,80.85
2022-11-23T17:10:33.998Z,81.07
2022-11-23T17:13:04.140Z,81.13
2022-11-23T17:15:32.085Z,80.90
2022-11-23T17:18:00.260Z,81.23
2022-11-23T17:20:28.818Z,81.30
2022-11-23T17:23:04.119Z,81.17
2022-11-23T17:25:31.991Z,81.03
2022-11-23T17:28:01.462Z,81.45
2022-11-23T17:30:33.271Z,81.48
2022-11-23T17:33:01.958Z,81.54
2022-11-23T17:35:32.694Z,81.17
2022-11-23T17:38:18.796Z,81.01
2022-11-23T17:40:46.880Z,81.58
2022-11-23T17:43:15.313Z,81.45
2022-11-23T17:45:45.527Z,81.94
2022-11-23T17:48:15.086Z,81.54
2022-11-23T17:50:42.857Z,81.41
2022-11-23T17:53:11.312Z,81.45
2022-11-23T17:55:39.853Z,81.76
2022-11-23T17:58:10.358Z,81.75
2022-11-23T18:00:38.918Z,81.76
2022-11-23T18:03:07.944Z,81.74
2022-11-23T18:05:35.687Z,81.76
2022-11-23T18:08:03.949Z,81.52
2022-11-23T18:10:31.742Z,81.64
2022-11-23T18:12:59.689Z,81.73
2022-11-23T18:15:27.401Z,81.40
2022-11-23T18:17:59.005Z,81.50
2022-11-23T18:20:32.551Z,81.20
2022-11-23T18:23:01.316Z,81.36
2022-11-23T18:25:29.037Z,81.52
2022-11-23T18:27:56.832Z,81.61
2022-11-23T18:30:26.500Z,81.52
2022-11-23T18:32:54.602Z,81.87
2022-11-23T18:35:22.352Z,82.33
2022-11-23T18:37:51.601Z,82.02
2022-11-23T18:40:22.951Z,82.09
2022-11-23T18:42:51.067Z,82.55
2022-11-23T18:45:20.029Z,82.42
2022-11-23T18:47:50.125Z,82.09
2022-11-23T18:50:18.278Z,82.37
2022-11-23T18:52:46.613Z,82.29
2022-11-23T18:55:15.712Z,82.40
2022-11-23T18:57:43.369Z,82.29
2022-11-23T19:00:17.103Z,82.27
2022-11-23T19:02:44.787Z,82.07
2022-11-23T19:05:12.639Z,81.98
2022-11-23T19:07:40.875Z,82.00
2022-11-23T19:10:09.743Z,81.73
2022-11-23T19:12:39.066Z,82.00
2022-11-23T19:15:12.855Z,82.03
2022-11-23T19:17:40.793Z,81.50
2022-11-23T19:20:09.945Z,81.29
2022-11-23T19:22:39.584Z,81.48
2022-11-23T19:25:08.996Z,81.35
2022-11-23T19:27:49.527Z,81.59
2022-11-23T19:30:18.660Z,80.93
2022-11-23T19:32:46.803Z,81.42
2022-11-23T19:35:16.157Z,81.15
2022-11-23T19:37:43.896Z,81.32
2022-11-23T19:40:13.931Z,81.45
2022-11-23T19:42:43.789Z,81.46
2022-11-23T19:45:12.707Z,81.50
2022-11-23T19:47:41.149Z,81.54
2022-11-23T19:50:16.276Z,81.62
2022-11-23T19:53:10.715Z,81.68
2022-11-23T19:55:33.145Z,81.75
2022-11-23T19:58:05.734Z,81.75
2022-11-23T20:00:57.829Z,81.94
2022-11-23T20:03:32.643Z,81.29
2022-11-23T20:06:03.196Z,81.67
2022-11-23T20:08:30.895Z,81.84
2022-11-23T20:11:03.119Z,81.57
2022-11-23T20:13:48.859Z,81.73
2022-11-23T20:16:22.366Z,81.34
2022-11-23T20:18:54.616Z,81.52
2022-11-23T20:21:23.226Z,81.29
2022-11-23T20:23:59.901Z,81.75
2022-11-23T20:26:31.945Z,81.76
2022-11-23T20:29:01.642Z,81.24
2022-11-23T20:31:30.898Z,81.59
2022-11-23T20:33:59.303Z,81.38
2022-11-23T20:36:29.170Z,81.29
2022-11-23T20:38:58.001Z,81.45
2022-11-23T20:41:27.335Z,81.24
2022-11-23T20:43:57.586Z,81.14
2022-11-23T20:46:54.088Z,81.27
2022-11-23T20:49:19.264Z,81.26
2022-11-23T20:51:47.835Z,81.07
2022-11-23T20:54:15.766Z,81.27
2022-11-23T20:56:47.645Z,80.92
2022-11-23T20:59:24.015Z,81.25
2022-11-23T21:01:54.260Z,81.52
2022-11-23T21:04:22.315Z,81.22
2022-11-23T21:09:34.182Z,81.27
2022-11-23T21:12:19.245Z,81.13
2022-11-23T21:14:49.262Z,81.38
2022-11-23T21:17:21.575Z,81.07
2022-11-23T21:20:09.471Z,81.14
2022-11-23T21:22:39.083Z,80.96
2022-11-23T21:25:07.719Z,80.57
2022-11-23T21:27:37.718Z,80.62
2022-11-23T21:30:07.494Z,80.86
2022-11-23T21:32:36.781Z,80.42
2022-11-23T21:35:10.435Z,80.88
2022-11-23T21:37:38.577Z,81.02
2022-11-23T21:40:07.749Z,81.04
2022-11-23T21:42:35.695Z,80.94
2022-11-23T21:45:03.406Z,81.28
2022-11-23T21:47:31.016Z,81.20
2022-11-23T21:50:00.666Z,80.78
2022-11-23T21:52:28.827Z,80.93
2022-11-23T21:54:56.705Z,80.68
2022-11-23T21:57:24.421Z,80.87
2022-11-23T21:59:52.631Z,80.69
2022-11-23T22:02:21.025Z,80.66
2022-11-23T22:04:50.245Z,80.74
2022-11-23T22:07:19.615Z,80.52
2022-11-23T22:09:47.561Z,80.34
2022-11-23T22:12:15.479Z,80.80
2022-11-23T22:14:43.841Z,80.32
2022-11-23T22:17:11.586Z,80.36
2022-11-23T22:19:40.455Z,80.76
2022-11-23T22:22:08.777Z,80.20
2022-11-23T22:24:38.134Z,80.21
2022-11-23T22:27:06.145Z,80.19
2022-11-23T22:29:33.937Z,80.15
2022-11-23T22:32:01.693Z,80.06
2022-11-23T22:34:30.077Z,80.00
2022-11-23T22:36:58.113Z,79.69
2022-11-23T22:39:25.885Z,79.41
2022-11-23T22:41:55.162Z,79.33
2022-11-23T22:44:23.144Z,79.65
2022-11-23T22:46:51.412Z,79.60
2022-11-23T22:49:19.504Z,79.47
2022-11-23T22:51:47.376Z,79.64
2022-11-23T22:54:15.456Z,79.50
2022-11-23T22:56:43.361Z,79.50
2022-11-23T22:59:12.680Z,79.95
2022-11-23T23:01:41.801Z,79.76
2022-11-23T23:04:09.679Z,79.95
2022-11-23T23:06:38.305Z,79.49
2022-11-23T23:09:07.900Z,79.49
2022-11-23T23:11:36.373Z,79.25
2022-11-23T23:14:04.538Z,79.28
2022-11-23T23:16:33.870Z,79.44
2022-11-23T23:19:02.221Z,79.49
2022-11-23T23:21:30.454Z,79.28
2022-11-23T23:24:01.132Z,79.29
2022-11-23T23:26:29.240Z,79.61
2022-11-23T23:28:57.707Z,79.74
2022-11-23T23:31:25.966Z,79.94
2022-11-23T23:33:55.171Z,79.51
2022-11-23T23:36:23.894Z,79.56
2022-11-23T23:38:52.178Z,79.44
2022-11-23T23:41:20.428Z,79.42
2022-11-23T23:43:49.025Z,79.45
2022-11-23T23:46:17.610Z,79.47
2022-11-23T23:48:45.826Z,79.28
2022-11-23T23:51:16.827Z,79.57
2022-11-23T23:53:45.419Z,79.79
2022-11-23T23:56:15.498Z,79.76
2022-11-23T23:58:43.634Z,79.42
